Pietro Novelli — IOTQ — position and weather

sailwx.info

Track history (hours):
 
Tides and Currents Weather Stations Pressure Air Temp Water Temp Dewpoint Dewpoint Depression Visibility Wind Speed Wind Dir Waves Ship Positions

Pietro Novelli

Last reported at 2017-Feb-26 23:04 UTC. Time now 2017-Feb-27 04:41 UTC.
Position N 37°51' E 012°21'.

Length 91 m; draft 3.7 m.

Type: Ship. MMSI: 247000300.

Date/timePositionNaut miles runAvg speedWind from/ knotsBaromVisibWave heightAir tempDewpointWater temp
2017-Feb-26 23:04N 37°51' E 012°21'612.0
2017-Feb-26 22:33N 37°57' E 012°25'6 6.1
2017-Feb-26 21:33N 38°01' E 012°30'0 0.0
2017-Feb-26 20:33N 38°01' E 012°30'0 0.0
2017-Feb-26 19:33N 38°01' E 012°30'0 0.0
2017-Feb-26 18:33N 38°01' E 012°30'0 0.0
2017-Feb-26 17:33N 38°01' E 012°30'0 0.0
2017-Feb-26 16:33N 38°01' E 012°30'0 0.0
2017-Feb-26 15:33N 38°01' E 012°30'0 0.0
2017-Feb-26 14:33N 38°01' E 012°30'0 0.0
2017-Feb-26 13:33N 38°01' E 012°30'0 0.0
2017-Feb-26 12:33N 38°01' E 012°30'0 0.0
2017-Feb-26 11:33N 38°01' E 012°30'0 0.0
2017-Feb-26 10:33N 38°01' E 012°30'0 0.0
2017-Feb-26 09:33N 38°01' E 012°30'0 0.0
2017-Feb-26 08:33N 38°01' E 012°30'0 0.0
2017-Feb-26 07:33N 38°01' E 012°30'0 0.0
2017-Feb-26 06:33N 38°01' E 012°30'0 0.0
2017-Feb-26 05:33N 38°01' E 012°30'0 0.0
2017-Feb-26 04:33N 38°01' E 012°30'0 0.0
2017-Feb-26 03:33N 38°01' E 012°30'0 0.0
2017-Feb-26 02:33N 38°01' E 012°30'0 0.0
2017-Feb-26 01:33N 38°01' E 012°30'0 0.0
2017-Feb-26 00:33N 38°01' E 012°30'0 0.0
2017-Feb-25 23:33N 38°01' E 012°30'0 0.0
2017-Feb-25 22:33N 38°01' E 012°30'0 0.0
2017-Feb-25 21:33N 38°01' E 012°30'0 0.0
2017-Feb-25 20:33N 38°01' E 012°30'0 0.0
2017-Feb-25 19:33N 38°01' E 012°30'0 0.0
2017-Feb-25 18:33N 38°01' E 012°30'0 0.0
2017-Feb-25 17:33N 38°01' E 012°30'0 0.0
2017-Feb-25 16:33N 38°01' E 012°30'0 0.0
2017-Feb-25 15:33N 38°01' E 012°30'0 0.0
2017-Feb-25 14:33N 38°01' E 012°30'0 0.0
2017-Feb-25 13:33N 38°01' E 012°30'0 0.0
2017-Feb-25 12:33N 38°01' E 012°30'0 0.0
2017-Feb-25 11:33N 38°01' E 012°30'0 0.0
2017-Feb-25 10:33N 38°01' E 012°30'0 0.0
2017-Feb-25 09:33N 38°01' E 012°30'0 0.0
2017-Feb-25 08:33N 38°01' E 012°30'0 0.0
2017-Feb-25 07:33N 38°01' E 012°30'0 0.0
2017-Feb-25 06:33N 38°01' E 012°30'0 0.0
2017-Feb-25 05:33N 38°01' E 012°30'0 0.0
2017-Feb-25 04:33N 38°01' E 012°30'0 0.0
2017-Feb-25 03:33N 38°01' E 012°30'0 0.0
2017-Feb-25 02:33N 38°01' E 012°30'0 0.0
2017-Feb-25 01:33N 38°01' E 012°30'0 0.0
2017-Feb-25 00:32N 38°01' E 012°30'0 0.0
2017-Feb-24 23:33N 38°01' E 012°30'0 0.0
2017-Feb-24 22:33N 38°01' E 012°30'0 0.0
2017-Feb-24 21:33N 38°01' E 012°30'0 0.0
2017-Feb-24 20:33N 38°01' E 012°30'0 0.0
2017-Feb-24 19:33N 38°01' E 012°30'0 0.0
2017-Feb-24 18:33N 38°01' E 012°30'0 0.0
2017-Feb-24 17:33N 38°01' E 012°30'0 0.0
2017-Feb-24 16:33N 38°01' E 012°30'0 0.0
2017-Feb-24 15:33N 38°01' E 012°30'0 0.0
2017-Feb-24 14:33N 38°01' E 012°30'0 0.0
2017-Feb-24 13:33N 38°01' E 012°30'0 0.0
2017-Feb-23 16:32N 38°01' E 012°30'0 0.0
2017-Feb-23 15:33N 38°01' E 012°30'2 2.1
2017-Feb-23 14:33N 37°60' E 012°28'4 0.3
2017-Feb-22 22:33N 37°56' E 012°25'6 6.3
2017-Feb-22 21:32N 38°01' E 012°30'0 0.0
2017-Feb-22 20:33N 38°01' E 012°30'0 0.0
2017-Feb-22 19:33N 38°01' E 012°30'0 0.0
2017-Feb-22 18:33N 38°01' E 012°30'0 0.0
2017-Feb-22 17:33N 38°01' E 012°30'0 0.0
2017-Feb-22 16:33N 38°01' E 012°30'0 0.0
2017-Feb-22 15:33N 38°01' E 012°30'2 2.0
2017-Feb-22 14:33N 37°60' E 012°28'10 0.6
2017-Feb-21 23:04N 37°52' E 012°21'611.9
2017-Feb-21 22:33N 37°57' E 012°25'6 5.8
2017-Feb-21 21:33N 38°01' E 012°30'0 0.0
2017-Feb-21 20:33N 38°01' E 012°30'0 0.0
2017-Feb-21 19:33N 38°01' E 012°30'0 0.0
2017-Feb-21 18:33N 38°01' E 012°30'0 0.0
2017-Feb-21 17:33N 38°01' E 012°30'0 0.0
2017-Feb-21 16:33N 38°01' E 012°30'0 0.0
2017-Feb-21 15:33N 38°01' E 012°30'3 3.1
2017-Feb-21 14:33N 37°59' E 012°27'10 0.6
2017-Feb-20 23:27N 37°50' E 012°21'1112.1
2017-Feb-20 22:33N 37°60' E 012°28'2 2.0
2017-Feb-20 21:33N 38°01' E 012°30'0 0.0
2017-Feb-20 20:33N 38°01' E 012°30'0 0.0
2017-Feb-20 19:33N 38°01' E 012°30'0 0.0
2017-Feb-20 18:33N 38°01' E 012°30'0 0.0
2017-Feb-20 17:33N 38°01' E 012°30'0 0.0
2017-Feb-20 16:33N 38°01' E 012°30'0 0.0
2017-Feb-20 15:33N 38°01' E 012°30'4 4.2
2017-Feb-20 14:33N 37°58' E 012°26'8 0.5
2017-Feb-19 23:03N 37°51' E 012°21'612.2
2017-Feb-19 22:33N 37°56' E 012°25'6 6.3
2017-Feb-19 21:33N 38°01' E 012°30'0 0.0
2017-Feb-19 20:33N 38°01' E 012°30'0 0.0
2017-Feb-19 19:33N 38°01' E 012°30'0 0.0
2017-Feb-19 18:33N 38°01' E 012°30'0 0.0
2017-Feb-19 17:33N 38°01' E 012°30'0 0.0
2017-Feb-19 16:33N 38°01' E 012°30'0 0.0
2017-Feb-19 15:33N 38°01' E 012°30'0 0.0
2017-Feb-19 14:33N 38°01' E 012°30'0 0.0
2017-Feb-19 13:33N 38°01' E 012°30'0 0.0
2017-Feb-19 12:33N 38°01' E 012°30'0 0.0
2017-Feb-19 11:33N 38°01' E 012°30'0 0.0
2017-Feb-19 10:33N 38°01' E 012°30'0 0.0
2017-Feb-19 09:33N 38°01' E 012°30'0 0.0
2017-Feb-19 08:33N 38°01' E 012°30'0 0.0
2017-Feb-19 07:33N 38°01' E 012°30'0 0.0
2017-Feb-19 06:33N 38°01' E 012°30'0 0.0
2017-Feb-19 05:33N 38°01' E 012°30'0 0.0
2017-Feb-19 04:33N 38°01' E 012°30'0 0.0
2017-Feb-19 03:33N 38°01' E 012°30'0 0.0
2017-Feb-19 02:33N 38°01' E 012°30'0 0.0
2017-Feb-19 01:33N 38°01' E 012°30'0 0.0
2017-Feb-19 00:33N 38°01' E 012°30'0 0.0
2017-Feb-18 23:33N 38°01' E 012°30'0 0.0
2017-Feb-18 22:33N 38°01' E 012°30'0 0.0
2017-Feb-18 21:33N 38°01' E 012°30'0 0.0
2017-Feb-18 20:33N 38°01' E 012°30'0 0.0
2017-Feb-18 19:33N 38°01' E 012°30'0 0.0
2017-Feb-18 18:33N 38°01' E 012°30'0 0.0
2017-Feb-18 17:33N 38°01' E 012°30'0 0.1
2017-Feb-18 16:34N 38°01' E 012°30'6 0.3
2017-Feb-17 22:32N 37°57' E 012°25'6 6.0
2017-Feb-17 21:33N 38°01' E 012°30'0 0.0
2017-Feb-17 20:33N 38°01' E 012°30'0 0.0
2017-Feb-17 19:33N 38°01' E 012°30'0 0.0
2017-Feb-17 18:33N 38°01' E 012°30'0 0.0
2017-Feb-17 17:33N 38°01' E 012°30'1 0.6
2017-Feb-17 16:33N 38°00' E 012°30'10 0.5
2017-Feb-16 23:05N 37°53' E 012°22'  
Track history (hours):
 
Tides and Currents Weather Stations Pressure Air Temp Water Temp Dewpoint Dewpoint Depression Visibility Wind Speed Wind Dir Waves Ship Positions

Pietro Novelli

Last reported at 2017-Feb-26 23:04 UTC. Time now 2017-Feb-27 04:41 UTC.
Position N 37°51' E 012°21'.

Length 91 m; draft 3.7 m.

Type: Ship. MMSI: 247000300.

Date/timePositionNaut miles runAvg speedWind from/ knotsBaromVisibWave heightAir tempDewpointWater temp
2017-Feb-26 23:04N 37°51' E 012°21'612.0
2017-Feb-26 22:33N 37°57' E 012°25'6 6.1
2017-Feb-26 21:33N 38°01' E 012°30'0 0.0
2017-Feb-26 20:33N 38°01' E 012°30'0 0.0
2017-Feb-26 19:33N 38°01' E 012°30'0 0.0
2017-Feb-26 18:33N 38°01' E 012°30'0 0.0
2017-Feb-26 17:33N 38°01' E 012°30'0 0.0
2017-Feb-26 16:33N 38°01' E 012°30'0 0.0
2017-Feb-26 15:33N 38°01' E 012°30'0 0.0
2017-Feb-26 14:33N 38°01' E 012°30'0 0.0
2017-Feb-26 13:33N 38°01' E 012°30'0 0.0
2017-Feb-26 12:33N 38°01' E 012°30'0 0.0
2017-Feb-26 11:33N 38°01' E 012°30'0 0.0
2017-Feb-26 10:33N 38°01' E 012°30'0 0.0
2017-Feb-26 09:33N 38°01' E 012°30'0 0.0
2017-Feb-26 08:33N 38°01' E 012°30'0 0.0
2017-Feb-26 07:33N 38°01' E 012°30'0 0.0
2017-Feb-26 06:33N 38°01' E 012°30'0 0.0
2017-Feb-26 05:33N 38°01' E 012°30'0 0.0
2017-Feb-26 04:33N 38°01' E 012°30'0 0.0
2017-Feb-26 03:33N 38°01' E 012°30'0 0.0
2017-Feb-26 02:33N 38°01' E 012°30'0 0.0
2017-Feb-26 01:33N 38°01' E 012°30'0 0.0
2017-Feb-26 00:33N 38°01' E 012°30'0 0.0
2017-Feb-25 23:33N 38°01' E 012°30'0 0.0
2017-Feb-25 22:33N 38°01' E 012°30'0 0.0
2017-Feb-25 21:33N 38°01' E 012°30'0 0.0
2017-Feb-25 20:33N 38°01' E 012°30'0 0.0
2017-Feb-25 19:33N 38°01' E 012°30'0 0.0
2017-Feb-25 18:33N 38°01' E 012°30'0 0.0
2017-Feb-25 17:33N 38°01' E 012°30'0 0.0
2017-Feb-25 16:33N 38°01' E 012°30'0 0.0
2017-Feb-25 15:33N 38°01' E 012°30'0 0.0
2017-Feb-25 14:33N 38°01' E 012°30'0 0.0
2017-Feb-25 13:33N 38°01' E 012°30'0 0.0
2017-Feb-25 12:33N 38°01' E 012°30'0 0.0
2017-Feb-25 11:33N 38°01' E 012°30'0 0.0
2017-Feb-25 10:33N 38°01' E 012°30'0 0.0
2017-Feb-25 09:33N 38°01' E 012°30'0 0.0
2017-Feb-25 08:33N 38°01' E 012°30'0 0.0
2017-Feb-25 07:33N 38°01' E 012°30'0 0.0
2017-Feb-25 06:33N 38°01' E 012°30'0 0.0
2017-Feb-25 05:33N 38°01' E 012°30'0 0.0
2017-Feb-25 04:33N 38°01' E 012°30'0 0.0
2017-Feb-25 03:33N 38°01' E 012°30'0 0.0
2017-Feb-25 02:33N 38°01' E 012°30'0 0.0
2017-Feb-25 01:33N 38°01' E 012°30'0 0.0
2017-Feb-25 00:32N 38°01' E 012°30'0 0.0
2017-Feb-24 23:33N 38°01' E 012°30'0 0.0
2017-Feb-24 22:33N 38°01' E 012°30'0 0.0
2017-Feb-24 21:33N 38°01' E 012°30'0 0.0
2017-Feb-24 20:33N 38°01' E 012°30'0 0.0
2017-Feb-24 19:33N 38°01' E 012°30'0 0.0
2017-Feb-24 18:33N 38°01' E 012°30'0 0.0
2017-Feb-24 17:33N 38°01' E 012°30'0 0.0
2017-Feb-24 16:33N 38°01' E 012°30'0 0.0
2017-Feb-24 15:33N 38°01' E 012°30'0 0.0
2017-Feb-24 14:33N 38°01' E 012°30'0 0.0
2017-Feb-24 13:33N 38°01' E 012°30'0 0.0
2017-Feb-23 16:32N 38°01' E 012°30'0 0.0
2017-Feb-23 15:33N 38°01' E 012°30'2 2.1
2017-Feb-23 14:33N 37°60' E 012°28'4 0.3
2017-Feb-22 22:33N 37°56' E 012°25'6 6.3
2017-Feb-22 21:32N 38°01' E 012°30'0 0.0
2017-Feb-22 20:33N 38°01' E 012°30'0 0.0
2017-Feb-22 19:33N 38°01' E 012°30'0 0.0
2017-Feb-22 18:33N 38°01' E 012°30'0 0.0
2017-Feb-22 17:33N 38°01' E 012°30'0 0.0
2017-Feb-22 16:33N 38°01' E 012°30'0 0.0
2017-Feb-22 15:33N 38°01' E 012°30'2 2.0
2017-Feb-22 14:33N 37°60' E 012°28'10 0.6
2017-Feb-21 23:04N 37°52' E 012°21'611.9
2017-Feb-21 22:33N 37°57' E 012°25'6 5.8
2017-Feb-21 21:33N 38°01' E 012°30'0 0.0
2017-Feb-21 20:33N 38°01' E 012°30'0 0.0
2017-Feb-21 19:33N 38°01' E 012°30'0 0.0
2017-Feb-21 18:33N 38°01' E 012°30'0 0.0
2017-Feb-21 17:33N 38°01' E 012°30'0 0.0
2017-Feb-21 16:33N 38°01' E 012°30'0 0.0
2017-Feb-21 15:33N 38°01' E 012°30'3 3.1
2017-Feb-21 14:33N 37°59' E 012°27'10 0.6
2017-Feb-20 23:27N 37°50' E 012°21'1112.1
2017-Feb-20 22:33N 37°60' E 012°28'2 2.0
2017-Feb-20 21:33N 38°01' E 012°30'0 0.0
2017-Feb-20 20:33N 38°01' E 012°30'0 0.0
2017-Feb-20 19:33N 38°01' E 012°30'0 0.0
2017-Feb-20 18:33N 38°01' E 012°30'0 0.0
2017-Feb-20 17:33N 38°01' E 012°30'0 0.0
2017-Feb-20 16:33N 38°01' E 012°30'0 0.0
2017-Feb-20 15:33N 38°01' E 012°30'4 4.2
2017-Feb-20 14:33N 37°58' E 012°26'8 0.5
2017-Feb-19 23:03N 37°51' E 012°21'612.2
2017-Feb-19 22:33N 37°56' E 012°25'6 6.3
2017-Feb-19 21:33N 38°01' E 012°30'0 0.0
2017-Feb-19 20:33N 38°01' E 012°30'0 0.0
2017-Feb-19 19:33N 38°01' E 012°30'0 0.0
2017-Feb-19 18:33N 38°01' E 012°30'0 0.0
2017-Feb-19 17:33N 38°01' E 012°30'0 0.0
2017-Feb-19 16:33N 38°01' E 012°30'0 0.0
2017-Feb-19 15:33N 38°01' E 012°30'0 0.0
2017-Feb-19 14:33N 38°01' E 012°30'0 0.0
2017-Feb-19 13:33N 38°01' E 012°30'0 0.0
2017-Feb-19 12:33N 38°01' E 012°30'0 0.0
2017-Feb-19 11:33N 38°01' E 012°30'0 0.0
2017-Feb-19 10:33N 38°01' E 012°30'0 0.0
2017-Feb-19 09:33N 38°01' E 012°30'0 0.0
2017-Feb-19 08:33N 38°01' E 012°30'0 0.0
2017-Feb-19 07:33N 38°01' E 012°30'0 0.0
2017-Feb-19 06:33N 38°01' E 012°30'0 0.0
2017-Feb-19 05:33N 38°01' E 012°30'0 0.0
2017-Feb-19 04:33N 38°01' E 012°30'0 0.0
2017-Feb-19 03:33N 38°01' E 012°30'0 0.0
2017-Feb-19 02:33N 38°01' E 012°30'0 0.0
2017-Feb-19 01:33N 38°01' E 012°30'0 0.0
2017-Feb-19 00:33N 38°01' E 012°30'0 0.0
2017-Feb-18 23:33N 38°01' E 012°30'0 0.0
2017-Feb-18 22:33N 38°01' E 012°30'0 0.0
2017-Feb-18 21:33N 38°01' E 012°30'0 0.0
2017-Feb-18 20:33N 38°01' E 012°30'0 0.0
2017-Feb-18 19:33N 38°01' E 012°30'0 0.0
2017-Feb-18 18:33N 38°01' E 012°30'0 0.0
2017-Feb-18 17:33N 38°01' E 012°30'0 0.1
2017-Feb-18 16:34N 38°01' E 012°30'6 0.3
2017-Feb-17 22:32N 37°57' E 012°25'6 6.0
2017-Feb-17 21:33N 38°01' E 012°30'0 0.0
2017-Feb-17 20:33N 38°01' E 012°30'0 0.0
2017-Feb-17 19:33N 38°01' E 012°30'0 0.0
2017-Feb-17 18:33N 38°01' E 012°30'0 0.0
2017-Feb-17 17:33N 38°01' E 012°30'1 0.6
2017-Feb-17 16:33N 38°00' E 012°30'10 0.5
2017-Feb-16 23:05N 37°53' E 012°22'  

Dump ship's entire track history